Time;durP1;ratioP1;P1;durP2;ratioP2;P2;SDS_P1;SDS_P2;PMS_P1;PMS_P2;Temp;Humidity;BMP_temperature;BMP_pressure;BME280_temperature;BME280_humidity;BME280_pressure;Samples;Min_cycle;Max_cycle;Signal;HPM_P1;HPM_P2
2021/12/11 00:00:15;;;;;;;2.13;1.92;;;2.70;99.90;;;;;;5075909;28;20717;-85
2021/12/11 00:02:45;;;;;;;1.38;1.27;;;;;;;;;;5081247;28;20215;-85
2021/12/11 00:05:17;;;;;;;2.13;1.80;;;2.60;99.90;;;;;;5078425;28;20217;-85
2021/12/11 00:07:46;;;;;;;2.15;1.95;;;;;;;;;;5076572;28;20638;-84
2021/12/11 00:10:23;;;;;;;2.00;1.85;;;2.50;99.90;;;;;;5083867;28;20282;-84
2021/12/11 00:12:55;;;;;;;1.95;1.85;;;2.50;99.90;;;;;;5075513;28;20325;-84
2021/12/11 00:15:28;;;;;;;3.55;1.90;;;2.50;99.90;;;;;;5078992;28;20311;-85
2021/12/11 00:18:00;;;;;;;1.83;1.73;;;2.50;99.90;;;;;;5083369;28;20207;-84
2021/12/11 00:20:32;;;;;;;3.15;1.80;;;2.40;99.90;;;;;;5080492;28;20254;-84
2021/12/11 00:23:07;;;;;;;2.38;1.60;;;;;;;;;;5075457;28;20211;-84
2021/12/11 00:25:43;;;;;;;3.47;1.65;;;2.50;99.90;;;;;;5078001;28;20627;-85
2021/12/11 00:28:15;;;;;;;2.42;1.88;;;2.50;99.90;;;;;;5077680;28;20311;-84
2021/12/11 00:30:46;;;;;;;2.17;1.80;;;2.50;99.90;;;;;;5075972;28;20305;-84
2021/12/11 00:33:21;;;;;;;2.13;2.00;;;2.50;99.90;;;;;;5075687;28;20227;-84
2021/12/11 00:35:48;;;;;;;2.10;1.90;;;;;;;;;;5078646;28;20223;-85
2021/12/11 00:38:18;;;;;;;1.70;1.60;;;2.60;99.90;;;;;;5079937;28;20233;-84
2021/12/11 00:40:53;;;;;;;2.55;2.05;;;2.60;99.90;;;;;;5080721;28;20212;-84
2021/12/11 00:43:34;;;;;;;1.67;1.50;;;2.60;99.90;;;;;;5072684;28;20216;-84
2021/12/11 00:46:15;;;;;;;2.00;1.50;;;2.50;99.90;;;;;;5076491;28;20216;-84
2021/12/11 00:48:47;;;;;;;2.08;1.88;;;;;;;;;;5082831;28;20196;-85
2021/12/11 00:51:18;;;;;;;3.75;1.92;;;2.50;99.90;;;;;;5080498;28;20288;-84
2021/12/11 00:53:54;;;;;;;2.03;1.20;;;2.60;99.90;;;;;;5080046;28;20199;-84
2021/12/11 00:56:24;;;;;;;1.60;1.50;;;2.60;99.90;;;;;;5061810;28;20367;-85
2021/12/11 00:58:55;;;;;;;2.13;1.70;;;2.60;99.90;;;;;;5071763;28;20231;-84
2021/12/11 01:01:24;;;;;;;2.25;1.65;;;2.60;99.90;;;;;;5080760;28;20205;-84
2021/12/11 01:03:56;;;;;;;1.70;1.60;;;2.50;99.90;;;;;;5079779;28;20208;-84
2021/12/11 01:06:28;;;;;;;1.75;1.65;;;2.50;99.90;;;;;;5076421;28;20225;-84
2021/12/11 01:09:00;;;;;;;1.40;1.30;;;2.50;99.90;;;;;;5079830;28;20743;-84
2021/12/11 01:11:32;;;;;;;1.38;1.27;;;2.60;99.90;;;;;;5078443;28;20239;-84
2021/12/11 01:14:09;;;;;;;1.42;1.33;;;2.60;99.90;;;;;;5085093;28;20643;-84
2021/12/11 01:16:38;;;;;;;1.90;1.35;;;2.50;99.90;;;;;;5081637;28;20204;-84
2021/12/11 01:19:06;;;;;;;1.83;1.35;;;2.60;99.90;;;;;;5082667;28;20297;-84
2021/12/11 01:21:45;;;;;;;1.65;1.50;;;2.60;99.90;;;;;;5083934;28;20201;-84
2021/12/11 01:24:16;;;;;;;2.35;1.63;;;2.60;99.90;;;;;;5084779;28;20291;-84
2021/12/11 01:26:49;;;;;;;1.67;1.27;;;2.60;99.90;;;;;;5079062;28;20229;-84
2021/12/11 01:29:18;;;;;;;1.20;1.10;;;2.50;99.90;;;;;;5082821;28;20229;-84
2021/12/11 01:31:45;;;;;;;1.85;1.70;;;;;;;;;;5082686;28;20321;-84
2021/12/11 01:34:13;;;;;;;1.17;1.08;;;;;;;;;;5082790;28;20201;-84
2021/12/11 01:36:40;;;;;;;1.40;1.30;;;;;;;;;;5080758;28;20237;-84
2021/12/11 01:39:11;;;;;;;0.98;0.98;;;2.50;99.90;;;;;;5081021;28;20295;-84
2021/12/11 01:41:38;;;;;;;0.80;0.80;;;;;;;;;;5076317;28;20288;-84
2021/12/11 01:44:11;;;;;;;1.30;1.10;;;2.60;99.90;;;;;;5081988;28;20236;-84
2021/12/11 01:46:39;;;;;;;1.35;1.17;;;2.60;99.90;;;;;;5083507;28;20282;-84
2021/12/11 01:49:11;;;;;;;1.20;1.10;;;2.70;99.90;;;;;;5080767;28;20208;-84
2021/12/11 01:51:41;;;;;;;1.95;1.27;;;2.60;99.90;;;;;;5073872;28;20640;-83
2021/12/11 01:54:13;;;;;;;1.38;1.25;;;2.40;99.90;;;;;;5084585;28;20282;-83
2021/12/11 01:56:42;;;;;;;5.32;1.40;;;2.60;99.90;;;;;;5079586;28;20287;-84
2021/12/11 01:59:15;;;;;;;1.83;1.70;;;2.60;99.90;;;;;;5079309;28;20275;-84
2021/12/11 02:01:46;;;;;;;1.65;1.55;;;2.40;99.90;;;;;;5078652;28;20219;-84
2021/12/11 02:04:15;;;;;;;1.70;1.25;;;2.50;99.90;;;;;;5082482;28;20681;-84
2021/12/11 02:06:46;;;;;;;2.58;1.40;;;2.50;99.90;;;;;;5081187;28;20718;-84
2021/12/11 02:09:20;;;;;;;1.75;1.42;;;2.50;99.90;;;;;;5077685;28;20200;-83
2021/12/11 02:11:50;;;;;;;1.30;1.20;;;2.60;99.90;;;;;;5077539;28;20212;-84
2021/12/11 02:14:26;;;;;;;1.23;1.00;;;2.60;99.90;;;;;;5079304;28;20247;-84
2021/12/11 02:16:55;;;;;;;1.50;1.40;;;2.60;99.90;;;;;;5082390;28;20314;-84
2021/12/11 02:19:30;;;;;;;1.55;1.45;;;2.60;99.90;;;;;;5075459;28;20262;-84
2021/12/11 02:22:11;;;;;;;1.45;1.35;;;2.40;99.90;;;;;;5081064;28;20620;-84
2021/12/11 02:24:43;;;;;;;1.35;1.25;;;2.40;99.90;;;;;;5082982;28;20550;-84
2021/12/11 02:27:15;;;;;;;0.90;0.90;;;2.30;99.90;;;;;;5078893;28;20202;-85
2021/12/11 02:29:46;;;;;;;1.13;1.08;;;2.00;99.90;;;;;;5073627;28;20201;-84
2021/12/11 02:32:18;;;;;;;1.40;1.30;;;2.00;99.90;;;;;;5081246;28;20279;-84
2021/12/11 02:34:49;;;;;;;2.03;1.45;;;1.80;99.90;;;;;;5081295;28;20203;-84
2021/12/11 02:37:23;;;;;;;1.23;1.08;;;1.80;99.90;;;;;;5079944;28;20200;-84
2021/12/11 02:39:54;;;;;;;0.70;0.70;;;1.70;99.90;;;;;;5079320;28;20205;-84
2021/12/11 02:42:25;;;;;;;0.63;0.60;;;1.70;99.90;;;;;;5077518;28;20245;-84
2021/12/11 02:44:57;;;;;;;0.68;0.68;;;1.70;99.90;;;;;;5076067;28;20486;-84
2021/12/11 02:47:28;;;;;;;0.73;0.73;;;1.60;99.90;;;;;;5075626;28;20231;-83
2021/12/11 02:50:00;;;;;;;0.60;0.60;;;2.60;99.90;;;;;;5079863;28;20617;-84
2021/12/11 02:52:32;;;;;;;0.50;0.50;;;1.40;99.90;;;;;;5084404;28;20228;-84
2021/12/11 02:55:05;;;;;;;0.70;0.60;;;1.40;99.90;;;;;;5079838;28;20276;-83
2021/12/11 02:57:35;;;;;;;0.55;0.55;;;1.50;99.90;;;;;;5076834;28;20696;-84
2021/12/11 03:00:13;;;;;;;0.75;0.68;;;1.50;99.90;;;;;;5080498;28;20204;-84
2021/12/11 03:02:44;;;;;;;0.65;0.65;;;1.40;99.90;;;;;;5082320;28;20844;-84
2021/12/11 03:05:15;;;;;;;0.50;0.40;;;1.30;99.90;;;;;;5079673;28;20208;-84
2021/12/11 03:07:50;;;;;;;0.45;0.45;;;;;;;;;;5077081;28;20280;-84
2021/12/11 03:10:19;;;;;;;0.80;0.80;;;1.40;99.90;;;;;;5080357;28;20209;-84
2021/12/11 03:12:47;;;;;;;0.77;0.77;;;;;;;;;;5076076;28;20260;-84
2021/12/11 03:15:17;;;;;;;0.75;0.75;;;1.40;99.90;;;;;;5080100;28;20277;-84
2021/12/11 03:17:45;;;;;;;0.77;0.60;;;1.40;99.90;;;;;;5080364;28;20213;-84
2021/12/11 03:20:17;;;;;;;0.93;0.93;;;1.60;99.90;;;;;;5077691;28;20224;-84
2021/12/11 03:22:46;;;;;;;1.20;1.20;;;1.40;99.90;;;;;;5080230;28;20210;-84
2021/12/11 03:25:16;;;;;;;1.33;1.23;;;1.40;99.90;;;;;;5076425;28;20227;-84
2021/12/11 03:27:43;;;;;;;1.30;1.20;;;;;;;;;;5080814;28;20293;-84
2021/12/11 03:30:13;;;;;;;1.60;1.50;;;1.60;99.90;;;;;;5076563;28;20212;-84
2021/12/11 03:32:40;;;;;;;1.40;1.30;;;;;;;;;;5078804;28;20677;-84
2021/12/11 03:35:09;;;;;;;1.20;1.05;;;1.40;99.90;;;;;;5077442;28;20305;-84
2021/12/11 03:37:37;;;;;;;1.55;1.45;;;;;;;;;;5077833;28;20301;-84
2021/12/11 03:40:08;;;;;;;1.58;1.48;;;2.20;99.90;;;;;;5068481;28;20320;-84
2021/12/11 03:42:38;;;;;;;1.73;1.63;;;1.40;99.90;;;;;;5078519;28;20230;-84
2021/12/11 03:45:11;;;;;;;1.75;1.65;;;1.40;99.90;;;;;;5078894;28;20235;-83
2021/12/11 03:47:43;;;;;;;1.83;1.73;;;1.30;99.90;;;;;;5075971;28;20546;-85
2021/12/11 03:50:12;;;;;;;2.13;2.00;;;1.20;99.90;;;;;;5076838;28;20213;-84
2021/12/11 03:52:40;;;;;;;2.20;2.00;;;;;;;;;;5078912;28;20264;-84
2021/12/11 03:55:11;;;;;;;2.25;2.05;;;1.40;99.90;;;;;;5080403;28;20291;-84
2021/12/11 03:57:41;;;;;;;2.10;2.00;;;;;;;;;;5078699;28;20619;-84
2021/12/11 04:00:14;;;;;;;2.70;2.50;;;1.40;99.90;;;;;;5082012;28;20200;-84
2021/12/11 04:02:43;;;;;;;1.95;1.85;;;1.20;99.90;;;;;;5075501;28;20697;-83
2021/12/11 04:05:11;;;;;;;2.55;2.35;;;1.40;99.90;;;;;;5079516;28;20556;-83
2021/12/11 04:07:41;;;;;;;3.05;2.70;;;1.40;99.90;;;;;;5079455;28;20291;-83
2021/12/11 04:10:11;;;;;;;3.17;2.90;;;1.50;99.90;;;;;;5078763;28;20208;-83
2021/12/11 04:12:38;;;;;;;3.55;2.75;;;1.50;99.90;;;;;;5075941;28;20225;-83
2021/12/11 04:15:06;;;;;;;2.10;2.00;;;1.40;99.90;;;;;;5074892;28;20202;-84
2021/12/11 04:17:34;;;;;;;2.88;2.65;;;;;;;;;;5074562;28;20209;-83
2021/12/11 04:20:05;;;;;;;3.35;3.05;;;1.40;99.90;;;;;;5077712;28;20211;-83
2021/12/11 04:22:32;;;;;;;2.80;2.60;;;1.50;99.90;;;;;;5073685;28;20637;-84
2021/12/11 04:25:00;;;;;;;3.63;3.38;;;;;;;;;;5081363;28;20223;-83
2021/12/11 04:27:28;;;;;;;3.30;3.00;;;;;;;;;;5077959;28;20250;-83
2021/12/11 04:29:56;;;;;;;3.35;3.15;;;1.40;99.90;;;;;;5080241;28;20254;-83
2021/12/11 04:32:26;;;;;;;3.97;3.45;;;1.40;99.90;;;;;;5077287;28;20630;-83
2021/12/11 04:34:53;;;;;;;3.05;2.85;;;;;;;;;;5077816;28;20225;-83
2021/12/11 04:37:25;;;;;;;3.60;2.40;;;1.30;99.90;;;;;;5074898;28;20240;-83
2021/12/11 04:39:58;;;;;;;3.97;3.67;;;;;;;;;;5083273;28;20214;-83
2021/12/11 04:42:37;;;;;;;9.38;3.83;;;1.10;99.90;;;;;;5069285;28;20204;-83
2021/12/11 04:45:07;;;;;;;3.22;3.00;;;1.40;99.90;;;;;;5076227;28;20337;-83
2021/12/11 04:47:40;;;;;;;5.53;3.40;;;;;;;;;;5073490;28;20212;-83
2021/12/11 04:50:17;;;;;;;3.20;2.97;;;1.40;99.90;;;;;;5079977;28;20205;-84
2021/12/11 04:52:53;;;;;;;3.28;2.97;;;1.40;99.90;;;;;;5080286;28;20214;-83
2021/12/11 04:55:32;;;;;;;3.72;3.42;;;;;;;;;;5082030;28;20207;-83
2021/12/11 04:58:11;;;;;;;3.67;3.38;;;1.40;99.90;;;;;;5085047;28;20207;-83
2021/12/11 05:00:56;;;;;;;3.35;3.05;;;1.60;99.90;;;;;;5083724;28;20231;-83
2021/12/11 05:06:19;;;;;;;4.30;3.90;;;;;;;;;;5082929;28;20218;-83
2021/12/11 05:09:14;;;;;;;3.97;3.63;;;1.30;99.90;;;;;;5083672;28;20200;-83
2021/12/11 05:11:48;;;;;;;3.47;3.17;;;1.20;99.90;;;;;;5071035;28;20218;-83
2021/12/11 05:14:17;;;;;;;3.05;2.80;;;1.40;99.90;;;;;;5081356;28;20711;-83
2021/12/11 05:16:46;;;;;;;4.25;3.85;;;1.50;99.90;;;;;;5078140;28;20239;-83
2021/12/11 05:19:13;;;;;;;4.15;3.72;;;1.50;99.90;;;;;;5082167;28;20226;-83
2021/12/11 05:21:41;;;;;;;4.95;3.95;;;;;;;;;;5079692;28;20563;-83
2021/12/11 05:24:10;;;;;;;3.83;3.17;;;1.40;99.90;;;;;;5081123;28;20721;-83
2021/12/11 05:26:37;;;;;;;3.50;3.20;;;;;;;;;;5083920;28;20236;-83
2021/12/11 05:29:05;;;;;;;4.55;4.15;;;1.50;99.90;;;;;;5080204;28;20227;-83
2021/12/11 05:31:32;;;;;;;3.40;3.10;;;1.50;99.90;;;;;;5073074;28;20255;-83
2021/12/11 05:34:01;;;;;;;4.32;3.78;;;1.40;99.90;;;;;;5084244;28;20640;-84
2021/12/11 05:36:31;;;;;;;3.55;3.25;;;;;;;;;;5078162;28;20962;-83
2021/12/11 05:38:58;;;;;;;5.78;3.67;;;;;;;;;;5081558;28;20203;-83
2021/12/11 05:41:26;;;;;;;3.60;3.30;;;1.40;99.90;;;;;;5082921;28;20232;-83
2021/12/11 05:43:54;;;;;;;4.78;3.80;;;-0.70;99.90;;;;;;5081460;28;20670;-82
2021/12/11 05:46:21;;;;;;;3.80;3.50;;;1.40;99.90;;;;;;5074138;28;20279;-83
2021/12/11 05:48:50;;;;;;;5.00;3.90;;;1.40;99.90;;;;;;5081565;28;20622;-83
2021/12/11 05:51:22;;;;;;;4.65;4.22;;;1.40;99.90;;;;;;5088256;28;20238;-83
2021/12/11 05:53:51;;;;;;;6.00;5.40;;;1.40;99.90;;;;;;5076873;28;20640;-82
2021/12/11 05:56:18;;;;;;;4.78;4.38;;;;;;;;;;5079806;28;20259;-83
2021/12/11 05:58:57;;;;;;;6.25;5.55;;;1.40;99.90;;;;;;5078355;28;20204;-83
2021/12/11 06:01:29;;;;;;;4.63;4.25;;;1.40;99.90;;;;;;5077205;28;20196;-84
2021/12/11 06:03:57;;;;;;;5.07;4.28;;;;;;;;;;5083938;28;20842;-83
2021/12/11 06:06:25;;;;;;;5.13;4.63;;;;;;;;;;5074075;28;20692;-84
2021/12/11 06:08:53;;;;;;;5.38;4.88;;;;;;;;;;5081836;28;20696;-83
2021/12/11 06:11:20;;;;;;;4.05;3.67;;;1.20;99.90;;;;;;5078290;28;20204;-84
2021/12/11 06:13:47;;;;;;;5.68;5.00;;;;;;;;;;5080840;28;20726;-83
2021/12/11 06:16:15;;;;;;;3.97;3.45;;;;;;;;;;5083660;28;20200;-83
2021/12/11 06:18:44;;;;;;;4.20;3.83;;;1.40;99.90;;;;;;5078890;28;20226;-83
2021/12/11 06:21:11;;;;;;;5.28;4.60;;;;;;;;;;5076094;28;20222;-84
2021/12/11 06:23:39;;;;;;;5.63;4.95;;;1.40;99.90;;;;;;5081166;28;20278;-83
2021/12/11 06:26:07;;;;;;;4.07;3.58;;;;;;;;;;5074312;28;20343;-84
2021/12/11 06:28:34;;;;;;;4.80;4.22;;;;;;;;;;5079980;28;20269;-84
2021/12/11 06:31:02;;;;;;;5.90;4.78;;;;;;;;;;5077380;28;20312;-84
2021/12/11 06:33:31;;;;;;;4.35;3.50;;;1.20;99.90;;;;;;5080449;28;20227;-84
2021/12/11 06:36:02;;;;;;;4.07;3.67;;;1.40;99.90;;;;;;5083687;28;20249;-83
2021/12/11 06:38:32;;;;;;;3.65;3.35;;;1.20;99.90;;;;;;5078375;28;20265;-83
2021/12/11 06:41:01;;;;;;;4.72;4.05;;;1.30;99.90;;;;;;5080456;28;20215;-83
2021/12/11 06:43:28;;;;;;;4.72;4.05;;;;;;;;;;5081830;28;20315;-83
2021/12/11 06:45:56;;;;;;;6.45;4.90;;;1.40;99.90;;;;;;5077444;28;20294;-84
2021/12/11 06:48:23;;;;;;;6.38;5.32;;;;;;;;;;5081196;28;20201;-84
2021/12/11 06:50:51;;;;;;;7.40;5.40;;;1.50;99.90;;;;;;5080777;28;20210;-83
2021/12/11 06:53:22;;;;;;;6.35;5.72;;;1.50;99.90;;;;;;5083594;28;20626;-83
2021/12/11 06:55:49;;;;;;;6.65;6.05;;;1.10;99.90;;;;;;5080605;28;20204;-83
2021/12/11 06:58:18;;;;;;;7.20;6.47;;;1.50;99.90;;;;;;5084268;28;20320;-83
2021/12/11 07:00:45;;;;;;;7.60;6.90;;;;;;;;;;5083798;28;20245;-83
2021/12/11 07:03:12;;;;;;;6.68;5.20;;;;;;;;;;5084267;28;20232;-83
2021/12/11 07:05:39;;;;;;;12.73;7.05;;;;;;;;;;5079403;28;20236;-84
2021/12/11 07:08:07;;;;;;;9.23;7.25;;;1.40;99.90;;;;;;5074139;28;20286;-83
2021/12/11 07:10:35;;;;;;;9.52;8.13;;;;;;;;;;5075793;28;21662;-83
2021/12/11 07:13:02;;;;;;;9.10;6.88;;;;;;;;;;5083261;28;20253;-82
2021/12/11 07:15:30;;;;;;;9.15;7.43;;;1.50;99.90;;;;;;5079488;28;20317;-83
2021/12/11 07:17:58;;;;;;;7.95;6.65;;;1.80;99.90;;;;;;5078095;28;20297;-83
2021/12/11 07:20:25;;;;;;;9.77;7.47;;;;;;;;;;5076426;28;20228;-83
2021/12/11 07:22:54;;;;;;;8.77;6.88;;;;;;;;;;5077400;28;20283;-83
2021/12/11 07:25:25;;;;;;;7.80;5.72;;;1.60;99.90;;;;;;5079169;28;20238;-83
2021/12/11 07:27:55;;;;;;;8.43;6.57;;;1.50;99.90;;;;;;5081138;28;20208;-83
2021/12/11 07:30:23;;;;;;;10.55;7.53;;;1.50;99.90;;;;;;5080066;28;20235;-83
2021/12/11 07:32:53;;;;;;;10.40;7.18;;;1.60;99.90;;;;;;5075840;28;20711;-83
2021/12/11 07:35:20;;;;;;;7.13;6.18;;;1.50;99.90;;;;;;5081556;28;20216;-84
2021/12/11 07:37:50;;;;;;;8.60;6.43;;;;;;;;;;5086943;28;20212;-84
2021/12/11 07:40:18;;;;;;;6.75;6.05;;;1.60;99.90;;;;;;5086550;28;20211;-83
2021/12/11 07:42:46;;;;;;;10.90;7.72;;;;;;;;;;5083605;28;20295;-83
2021/12/11 07:45:13;;;;;;;8.35;5.78;;;;;;;;;;5081126;28;20291;-83
2021/12/11 07:47:40;;;;;;;9.13;6.80;;;;;;;;;;5084712;28;20196;-84
2021/12/11 07:50:11;;;;;;;7.43;6.25;;;1.60;99.90;;;;;;5079429;28;20284;-84
2021/12/11 07:52:39;;;;;;;9.25;6.97;;;1.60;99.90;;;;;;5085719;28;20200;-84
2021/12/11 07:55:07;;;;;;;6.20;4.65;;;1.40;99.90;;;;;;5084815;28;20259;-84
2021/12/11 07:57:34;;;;;;;12.50;8.05;;;;;;;;;;5086038;28;20246;-84
2021/12/11 08:00:01;;;;;;;9.50;8.55;;;;;;;;;;5079846;28;20244;-84
2021/12/11 08:02:28;;;;;;;9.57;8.50;;;;;;;;;;5084423;28;20211;-84
2021/12/11 08:04:56;;;;;;;11.57;8.02;;;;;;;;;;5085764;28;20696;-84
2021/12/11 08:07:24;;;;;;;11.23;9.02;;;;;;;;;;5085346;28;20286;-84
2021/12/11 08:09:52;;;;;;;10.95;8.70;;;;;;;;;;5085768;28;20230;-84
2021/12/11 08:12:19;;;;;;;11.93;9.45;;;;;;;;;;5079772;28;20222;-84
2021/12/11 08:14:46;;;;;;;11.82;8.60;;;;;;;;;;5079104;28;20624;-84
2021/12/11 08:17:15;;;;;;;8.63;7.45;;;;;;;;;;5078823;28;20250;-84
2021/12/11 08:19:42;;;;;;;15.85;12.25;;;;;;;;;;5081254;28;20780;-84
2021/12/11 08:22:13;;;;;;;12.95;10.90;;;1.60;99.90;;;;;;5085025;28;20296;-84
2021/12/11 08:24:42;;;;;;;17.10;11.43;;;1.60;99.90;;;;;;5084592;28;20242;-84
2021/12/11 08:27:11;;;;;;;14.63;10.52;;;1.60;99.90;;;;;;5083605;28;20283;-84
2021/12/11 08:29:39;;;;;;;14.40;11.02;;;;;;;;;;5085119;28;20656;-84
2021/12/11 08:32:06;;;;;;;12.85;10.10;;;;;;;;;;5078263;28;20207;-83
2021/12/11 08:34:34;;;;;;;17.05;10.55;;;;;;;;;;5082183;28;20228;-83
2021/12/11 08:37:03;;;;;;;12.13;9.50;;;1.60;99.90;;;;;;5080085;28;20286;-84
2021/12/11 08:39:30;;;;;;;14.23;9.73;;;;;;;;;;5086096;28;20294;-84
2021/12/11 08:42:00;;;;;;;17.23;10.75;;;1.60;99.90;;;;;;5083194;28;20766;-84
2021/12/11 08:44:29;;;;;;;13.48;10.85;;;;;;;;;;5084302;28;20574;-84
2021/12/11 08:47:00;;;;;;;13.40;9.70;;;1.60;99.90;;;;;;5085515;28;20211;-84
2021/12/11 08:49:30;;;;;;;16.90;11.27;;;1.60;99.90;;;;;;5087016;28;20227;-84
2021/12/11 08:52:00;;;;;;;17.52;10.25;;;1.70;99.90;;;;;;5083267;28;20262;-83
2021/12/11 08:54:28;;;;;;;17.17;11.75;;;1.70;99.90;;;;;;5083484;28;20227;-83
2021/12/11 08:56:56;;;;;;;17.40;12.05;;;1.60;99.90;;;;;;5080096;28;20277;-84
2021/12/11 08:59:30;;;;;;;13.38;10.35;;;1.80;99.90;;;;;;5079924;28;20250;-84
2021/12/11 09:02:11;;;;;;;15.85;11.27;;;1.70;99.90;;;;;;5082572;28;20626;-84
2021/12/11 09:04:43;;;;;;;16.42;11.23;;;1.60;99.90;;;;;;5086578;28;20663;-84
2021/12/11 09:07:13;;;;;;;15.57;10.73;;;1.90;99.90;;;;;;5086574;28;20291;-84
2021/12/11 09:09:45;;;;;;;16.20;10.15;;;1.80;99.90;;;;;;5083367;28;20196;-84
2021/12/11 09:12:17;;;;;;;16.30;11.85;;;1.80;99.90;;;;;;5075449;28;20199;-83
2021/12/11 09:14:52;;;;;;;12.55;9.73;;;1.70;99.90;;;;;;5081744;28;20227;-83
2021/12/11 09:17:24;;;;;;;16.80;10.70;;;1.90;99.90;;;;;;5083102;28;20279;-84
2021/12/11 09:19:54;;;;;;;13.18;9.65;;;1.80;99.90;;;;;;5083899;28;20230;-84
2021/12/11 09:25:28;;;;;;;16.40;11.82;;;2.00;99.90;;;;;;5073147;28;20220;-84
2021/12/11 09:27:58;;;;;;;18.60;10.95;;;2.10;99.90;;;;;;5088734;28;20403;-84
2021/12/11 09:30:32;;;;;;;13.65;10.63;;;2.10;99.90;;;;;;5085141;28;20756;-84
2021/12/11 09:33:02;;;;;;;14.38;9.57;;;;;;;;;;5079812;28;20268;-84
2021/12/11 09:35:33;;;;;;;17.77;12.23;;;2.10;99.90;;;;;;5086885;28;20220;-84
2021/12/11 09:38:06;;;;;;;14.95;10.65;;;2.50;99.90;;;;;;5083898;28;20228;-84
2021/12/11 09:40:55;;;;;;;10.88;9.07;;;2.20;99.90;;;;;;5083273;28;20232;-84
2021/12/11 09:43:38;;;;;;;11.30;8.95;;;2.20;99.90;;;;;;5082027;28;20287;-84
2021/12/11 09:46:08;;;;;;;11.95;9.88;;;2.20;99.90;;;;;;5076469;28;20234;-84
2021/12/11 09:48:39;;;;;;;9.48;8.48;;;2.20;99.90;;;;;;5081543;28;20229;-84
2021/12/11 09:51:11;;;;;;;10.45;9.02;;;2.20;99.90;;;;;;5088044;28;20202;-84
2021/12/11 09:53:42;;;;;;;13.82;9.65;;;2.30;99.90;;;;;;5080771;28;20310;-84
2021/12/11 09:56:18;;;;;;;15.02;10.50;;;2.40;99.90;;;;;;5078732;28;20315;-84
2021/12/11 09:58:46;;;;;;;13.13;10.65;;;;;;;;;;5084016;28;20282;-84
2021/12/11 10:01:17;;;;;;;15.00;10.50;;;2.50;99.90;;;;;;5087637;28;20231;-84
2021/12/11 10:03:48;;;;;;;12.00;10.05;;;3.30;99.90;;;;;;5068355;28;20685;-85
2021/12/11 10:06:39;;;;;;;9.88;8.20;;;2.50;99.90;;;;;;5083520;28;20215;-85
2021/12/11 10:09:19;;;;;;;11.80;9.05;;;2.50;99.90;;;;;;5082025;28;20937;-85
2021/12/11 10:11:54;;;;;;;13.20;9.93;;;2.60;99.90;;;;;;5087257;28;20663;-84
2021/12/11 10:14:26;;;;;;;10.45;8.55;;;2.50;99.90;;;;;;5083286;28;20239;-85
2021/12/11 10:16:57;;;;;;;9.55;7.47;;;2.50;99.90;;;;;;5087840;28;20197;-84
2021/12/11 10:19:29;;;;;;;10.60;8.32;;;2.30;99.90;;;;;;5086894;28;20201;-85
2021/12/11 10:21:58;;;;;;;11.88;8.63;;;;;;;;;;5082092;28;20220;-84
2021/12/11 10:24:29;;;;;;;7.10;6.38;;;2.60;99.90;;;;;;5079893;28;20211;-84
2021/12/11 10:26:57;;;;;;;8.20;6.80;;;2.60;99.90;;;;;;5081089;28;20390;-85
2021/12/11 10:29:26;;;;;;;10.48;9.38;;;;;;;;;;5080211;28;20223;-85
2021/12/11 10:31:58;;;;;;;10.65;8.63;;;2.80;99.90;;;;;;5086257;28;20646;-84
2021/12/11 10:34:27;;;;;;;10.10;8.80;;;;;;;;;;5088131;28;20658;-84
2021/12/11 10:36:57;;;;;;;11.30;8.30;;;;;;;;;;5086339;28;20250;-84
2021/12/11 10:39:24;;;;;;;8.90;8.00;;;2.90;99.90;;;;;;5079711;28;20250;-83
2021/12/11 10:41:53;;;;;;;10.27;9.15;;;2.90;99.90;;;;;;5076355;28;20233;-84
2021/12/11 10:44:23;;;;;;;11.82;8.77;;;2.90;99.90;;;;;;5075340;28;20302;-84
2021/12/11 10:46:56;;;;;;;11.50;9.40;;;2.80;99.90;;;;;;5078958;28;20218;-84
2021/12/11 10:49:24;;;;;;;10.30;8.30;;;3.00;99.90;;;;;;5082845;28;20194;-84
2021/12/11 10:51:57;;;;;;;13.23;8.40;;;2.90;99.90;;;;;;5078608;28;20205;-84
2021/12/11 10:54:26;;;;;;;11.48;8.43;;;2.80;99.90;;;;;;5082641;28;20239;-84
2021/12/11 10:56:53;;;;;;;7.93;7.13;;;4.20;99.90;;;;;;5080486;28;20213;-84
2021/12/11 10:59:22;;;;;;;9.88;8.40;;;2.80;99.90;;;;;;5079574;28;20259;-85
2021/12/11 11:01:53;;;;;;;11.05;9.95;;;2.90;99.90;;;;;;5079386;28;20287;-85
2021/12/11 11:04:24;;;;;;;9.65;7.97;;;2.60;99.90;;;;;;5075566;28;20513;-84
2021/12/11 11:06:51;;;;;;;27.77;16.92;;;;;;;;;;5075399;28;20674;-85
2021/12/11 11:09:20;;;;;;;10.73;8.88;;;;;;;;;;5083214;28;20580;-85
2021/12/11 11:11:49;;;;;;;10.25;7.15;;;2.70;99.90;;;;;;5077829;28;20276;-85
2021/12/11 11:14:17;;;;;;;9.00;6.50;;;2.70;99.90;;;;;;5075068;28;20201;-85
2021/12/11 11:16:47;;;;;;;8.52;7.63;;;2.60;99.90;;;;;;5079465;28;20237;-85
2021/12/11 11:19:15;;;;;;;14.40;11.27;;;;;;;;;;5078262;28;20301;-85
2021/12/11 11:21:46;;;;;;;14.38;7.85;;;2.80;99.90;;;;;;5077632;28;20237;-85
2021/12/11 11:24:15;;;;;;;9.18;8.00;;;2.80;99.90;;;;;;5078052;28;20224;-85
2021/12/11 11:26:45;;;;;;;7.80;6.53;;;2.70;99.90;;;;;;5076981;28;20274;-85
2021/12/11 11:29:15;;;;;;;11.65;9.80;;;2.70;99.90;;;;;;5075774;28;20223;-85
2021/12/11 11:31:47;;;;;;;14.48;12.63;;;2.80;99.90;;;;;;5081765;28;20281;-85
2021/12/11 11:34:19;;;;;;;8.75;7.50;;;2.70;99.90;;;;;;5075225;28;20207;-84
2021/12/11 11:36:48;;;;;;;6.75;6.05;;;2.80;99.90;;;;;;5069302;28;20294;-85
2021/12/11 11:39:17;;;;;;;7.95;7.15;;;;;;;;;;5080708;28;20248;-85
2021/12/11 11:41:47;;;;;;;8.75;7.63;;;2.80;99.90;;;;;;5073992;28;20754;-84
2021/12/11 11:44:14;;;;;;;9.90;7.07;;;;;;;;;;5080651;28;20249;-85
2021/12/11 11:46:42;;;;;;;8.88;7.82;;;2.80;99.90;;;;;;5075223;28;20210;-85
2021/12/11 11:49:12;;;;;;;7.75;6.90;;;2.80;99.90;;;;;;5077326;28;20209;-85
2021/12/11 11:51:44;;;;;;;8.57;7.78;;;3.00;99.90;;;;;;5073500;28;20197;-85
2021/12/11 11:54:13;;;;;;;9.55;7.18;;;2.90;99.90;;;;;;5076734;28;20221;-85
2021/12/11 11:56:43;;;;;;;11.85;10.40;;;2.90;99.90;;;;;;5078161;28;20228;-85
2021/12/11 11:59:12;;;;;;;8.00;7.20;;;3.00;99.90;;;;;;5083838;28;20223;-84
2021/12/11 12:01:42;;;;;;;6.47;5.60;;;3.00;99.90;;;;;;5082996;28;20198;-85
2021/12/11 12:04:11;;;;;;;8.80;7.45;;;2.80;99.90;;;;;;5084229;28;20312;-85
2021/12/11 12:06:40;;;;;;;7.85;6.15;;;2.90;99.90;;;;;;5075158;28;20262;-85
2021/12/11 12:09:11;;;;;;;7.47;6.72;;;2.80;99.90;;;;;;5082044;28;20224;-84
2021/12/11 12:11:40;;;;;;;8.10;6.75;;;2.90;99.90;;;;;;5084913;28;20296;-84
2021/12/11 12:14:11;;;;;;;8.80;7.90;;;3.00;99.90;;;;;;5084943;28;20741;-84
2021/12/11 12:16:41;;;;;;;8.50;6.70;;;2.90;99.90;;;;;;5084482;28;20314;-85
2021/12/11 12:19:08;;;;;;;11.35;7.30;;;;;;;;;;5079240;28;20201;-83
2021/12/11 12:21:37;;;;;;;8.82;7.47;;;2.90;99.90;;;;;;5075727;28;20224;-83
2021/12/11 12:24:06;;;;;;;9.15;7.25;;;3.00;99.90;;;;;;5084714;28;20244;-82
2021/12/11 12:26:36;;;;;;;9.13;7.45;;;3.30;99.90;;;;;;5078139;28;20196;-82
2021/12/11 12:29:07;;;;;;;9.90;7.15;;;3.00;99.90;;;;;;5079234;28;20209;-82
2021/12/11 12:31:39;;;;;;;9.25;7.75;;;3.10;99.90;;;;;;5080311;28;20244;-82
2021/12/11 12:34:06;;;;;;;8.10;6.50;;;;;;;;;;5077719;28;20274;-83
2021/12/11 12:36:34;;;;;;;6.88;5.80;;;3.10;99.90;;;;;;5075736;28;20217;-82
2021/12/11 12:39:01;;;;;;;7.82;6.22;;;;;;;;;;5082121;28;20303;-82
2021/12/11 12:41:32;;;;;;;7.28;6.15;;;3.10;99.90;;;;;;5076144;28;20263;-82
2021/12/11 12:44:20;;;;;;;6.00;5.40;;;-0.20;99.60;;;;;;5077686;28;20237;-82
2021/12/11 12:46:56;;;;;;;6.10;4.55;;;3.00;99.90;;;;;;5079990;28;20210;-82
2021/12/11 12:49:25;;;;;;;5.55;4.95;;;3.00;99.90;;;;;;5078956;28;20212;-82
2021/12/11 12:51:53;;;;;;;6.55;5.45;;;;;;;;;;5078825;28;20285;-82
2021/12/11 12:54:23;;;;;;;7.15;5.70;;;2.90;99.90;;;;;;5076834;28;20236;-83
2021/12/11 12:56:55;;;;;;;7.95;6.30;;;3.00;99.90;;;;;;5077207;28;20301;-82
2021/12/11 12:59:27;;;;;;;7.85;7.05;;;3.10;99.90;;;;;;5079529;28;20312;-82
2021/12/11 13:01:57;;;;;;;5.85;5.30;;;3.00;99.90;;;;;;5079518;28;20236;-82
2021/12/11 13:04:29;;;;;;;7.78;6.97;;;3.20;99.90;;;;;;5085720;28;20205;-82
2021/12/11 13:06:58;;;;;;;6.35;5.75;;;3.10;99.90;;;;;;5088669;28;20259;-83
2021/12/11 13:09:30;;;;;;;8.23;6.50;;;3.30;99.90;;;;;;5086415;28;20292;-82
2021/12/11 13:12:02;;;;;;;8.95;6.80;;;3.30;99.90;;;;;;5084679;28;20832;-82
2021/12/11 13:14:31;;;;;;;6.50;5.88;;;3.60;99.90;;;;;;5079445;28;20876;-82
2021/12/11 13:17:02;;;;;;;8.38;5.95;;;3.40;99.90;;;;;;5081266;28;20226;-82
2021/12/11 13:19:32;;;;;;;10.60;6.35;;;3.30;99.90;;;;;;5076264;28;20206;-82
2021/12/11 13:22:05;;;;;;;8.48;5.93;;;3.40;99.90;;;;;;5082632;28;20206;-82
2021/12/11 13:24:33;;;;;;;7.85;6.05;;;;;;;;;;5076603;28;20226;-82
2021/12/11 13:27:06;;;;;;;7.75;6.57;;;3.30;99.90;;;;;;5079312;28;20267;-82
2021/12/11 13:29:43;;;;;;;6.63;5.22;;;3.30;99.90;;;;;;5076871;28;20293;-82
2021/12/11 13:32:14;;;;;;;5.90;4.05;;;3.20;99.90;;;;;;5081797;28;20297;-82
2021/12/11 13:34:45;;;;;;;5.72;4.40;;;3.10;99.90;;;;;;5082083;28;20198;-82
2021/12/11 13:37:15;;;;;;;5.85;4.35;;;3.30;99.90;;;;;;5073938;28;20264;-82
2021/12/11 13:39:46;;;;;;;6.63;5.38;;;3.10;99.90;;;;;;5077852;28;20236;-82